TAF and METAR

Could not understand the following METAR

YTEF 280400Z AUTO 33012KT 310V010 9999 // NCD 37/12 Q1012
No TAF available for Telfer Airport
Telfer Airport in Australia at 296m

Latest 5 airports